createdAt,value
2018-10-04T00:00:18.082Z,11.60
2018-10-04T00:02:22.374Z,11.60
2018-10-04T00:04:26.683Z,11.60
2018-10-04T00:06:30.840Z,11.60
2018-10-04T00:08:35.083Z,11.60
2018-10-04T00:10:39.250Z,11.60
2018-10-04T00:12:43.502Z,11.60
2018-10-04T00:14:47.672Z,11.60
2018-10-04T00:16:52.538Z,11.70
2018-10-04T00:18:56.862Z,11.60
2018-10-04T00:21:01.468Z,11.70
2018-10-04T00:23:05.694Z,11.70
2018-10-04T00:25:10.056Z,11.70
2018-10-04T00:27:14.278Z,11.70
2018-10-04T00:29:18.539Z,11.70
2018-10-04T00:31:22.759Z,11.70
2018-10-04T00:33:26.981Z,11.70
2018-10-04T00:35:31.228Z,11.70
2018-10-04T00:37:35.505Z,11.70
2018-10-04T00:39:39.734Z,11.80
2018-10-04T00:41:44.007Z,11.60
2018-10-04T00:43:48.264Z,11.60
2018-10-04T00:45:52.560Z,11.60
2018-10-04T00:47:56.852Z,11.70
2018-10-04T00:50:01.054Z,11.60
2018-10-04T00:52:05.287Z,11.70
2018-10-04T00:54:09.528Z,11.70
2018-10-04T00:56:13.703Z,11.70
2018-10-04T00:58:18.051Z,11.70
2018-10-04T01:00:22.329Z,11.70
2018-10-04T01:02:26.578Z,11.70
2018-10-04T01:04:31.652Z,11.70
2018-10-04T01:06:35.846Z,11.60
2018-10-04T01:08:40.133Z,11.60
2018-10-04T01:10:44.349Z,11.70
2018-10-04T01:12:48.629Z,11.80
2018-10-04T01:14:52.843Z,11.80
2018-10-04T01:16:57.001Z,11.70
2018-10-04T01:19:01.844Z,11.70
2018-10-04T01:21:06.021Z,11.70
2018-10-04T01:23:10.275Z,11.70
2018-10-04T01:25:14.475Z,11.70
2018-10-04T01:27:18.704Z,11.70
2018-10-04T01:29:23.064Z,11.70
2018-10-04T01:31:27.893Z,11.80
2018-10-04T01:33:32.162Z,11.70
2018-10-04T01:35:36.395Z,11.70
2018-10-04T01:37:40.620Z,11.70
2018-10-04T01:39:44.874Z,11.70
2018-10-04T01:41:49.082Z,11.60
2018-10-04T01:43:53.332Z,11.70
2018-10-04T01:46:24.465Z,11.70
2018-10-04T01:48:29.701Z,11.70
2018-10-04T01:50:33.825Z,11.70
2018-10-04T01:52:38.053Z,11.70
2018-10-04T01:54:42.280Z,11.70
2018-10-04T01:56:46.578Z,11.70
2018-10-04T01:58:50.790Z,11.70
2018-10-04T02:00:54.999Z,11.70
2018-10-04T02:02:59.250Z,11.60
2018-10-04T02:05:03.526Z,11.60
2018-10-04T02:07:07.751Z,11.70
2018-10-04T02:09:12.006Z,11.70
2018-10-04T02:11:16.221Z,11.70
2018-10-04T02:13:20.469Z,11.70
2018-10-04T02:15:24.663Z,11.70
2018-10-04T02:17:28.797Z,11.60
2018-10-04T02:19:33.027Z,11.60
2018-10-04T02:21:37.210Z,11.60
2018-10-04T02:23:41.455Z,11.60
2018-10-04T02:25:45.727Z,11.60
2018-10-04T02:27:49.910Z,11.60
2018-10-04T02:29:54.127Z,11.60
2018-10-04T02:31:58.491Z,11.70
2018-10-04T02:34:02.715Z,11.60
2018-10-04T02:36:06.940Z,11.70
2018-10-04T02:38:11.136Z,11.60
2018-10-04T02:40:15.428Z,11.70
2018-10-04T02:42:19.962Z,11.60
2018-10-04T02:44:24.704Z,11.70
2018-10-04T02:46:28.922Z,11.70
2018-10-04T02:48:33.597Z,11.70
2018-10-04T02:50:37.886Z,11.60
2018-10-04T02:52:42.779Z,11.60
2018-10-04T02:54:52.210Z,11.50
2018-10-04T02:56:58.349Z,11.60
2018-10-04T02:59:03.195Z,11.60
2018-10-04T03:01:07.870Z,11.60
2018-10-04T03:03:12.857Z,11.60
2018-10-04T03:05:18.140Z,11.70
2018-10-04T03:07:22.628Z,11.60
2018-10-04T03:09:27.272Z,11.60
2018-10-04T03:11:33.233Z,11.60
2018-10-04T03:13:37.940Z,11.70
2018-10-04T03:15:43.331Z,11.70
2018-10-04T03:17:47.509Z,11.70
2018-10-04T03:19:51.779Z,11.70
2018-10-04T03:21:56.093Z,11.60
2018-10-04T03:24:00.265Z,11.60
2018-10-04T03:26:04.512Z,11.60
2018-10-04T03:28:08.730Z,11.70
2018-10-04T03:30:13.037Z,11.60
2018-10-04T03:32:17.227Z,11.70
2018-10-04T03:34:21.417Z,11.60
2018-10-04T03:36:25.650Z,11.70
2018-10-04T03:38:29.885Z,11.70
2018-10-04T03:40:34.108Z,11.70
2018-10-04T03:42:38.334Z,11.70
2018-10-04T03:44:42.488Z,11.70
2018-10-04T03:46:46.726Z,11.70
2018-10-04T03:48:50.928Z,11.70
2018-10-04T03:50:55.149Z,11.70
2018-10-04T03:52:59.391Z,11.70
2018-10-04T03:55:03.669Z,11.70
2018-10-04T03:57:07.876Z,11.70
2018-10-04T03:59:12.117Z,11.70
2018-10-04T04:01:16.374Z,11.70
2018-10-04T04:03:20.622Z,11.80
2018-10-04T04:05:24.932Z,11.70
2018-10-04T04:07:48.516Z,11.70
2018-10-04T04:09:52.742Z,11.80
2018-10-04T04:11:57.042Z,11.70
2018-10-04T04:14:01.148Z,11.80
2018-10-04T04:16:05.392Z,11.80
2018-10-04T04:18:09.596Z,11.80
2018-10-04T04:20:13.778Z,11.80
2018-10-04T04:22:17.997Z,11.80
2018-10-04T04:24:22.198Z,11.80
2018-10-04T04:26:26.521Z,11.80
2018-10-04T04:28:30.670Z,11.80
2018-10-04T04:30:35.064Z,11.80
2018-10-04T04:32:39.355Z,11.80
2018-10-04T04:34:43.559Z,11.80
2018-10-04T04:36:47.843Z,11.80
2018-10-04T04:38:52.042Z,11.80
2018-10-04T04:40:56.391Z,11.80
2018-10-04T04:43:00.678Z,11.80
2018-10-04T04:45:05.064Z,11.80
2018-10-04T04:47:09.347Z,11.80
2018-10-04T04:49:13.848Z,11.90
2018-10-04T04:51:18.039Z,11.90
2018-10-04T04:53:34.722Z,11.90
2018-10-04T04:55:38.912Z,11.90
2018-10-04T04:57:43.170Z,11.90
2018-10-04T04:59:47.481Z,11.90
2018-10-04T05:01:51.826Z,11.90
2018-10-04T05:03:56.104Z,11.90
2018-10-04T05:06:00.330Z,11.90
2018-10-04T05:08:05.735Z,11.90
2018-10-04T05:10:09.953Z,11.90
2018-10-04T05:12:14.233Z,11.90
2018-10-04T05:14:18.509Z,11.90
2018-10-04T05:16:22.720Z,11.90
2018-10-04T05:18:27.001Z,11.90
2018-10-04T05:20:31.265Z,11.90
2018-10-04T05:22:35.805Z,11.90
2018-10-04T05:24:41.066Z,11.80
2018-10-04T05:26:46.234Z,11.90
2018-10-04T05:28:50.501Z,11.90
2018-10-04T05:30:54.743Z,11.90
2018-10-04T05:32:59.523Z,11.90
2018-10-04T05:35:04.084Z,11.90
2018-10-04T05:37:08.673Z,11.90
2018-10-04T05:39:12.844Z,11.90
2018-10-04T05:41:17.056Z,11.90
2018-10-04T05:43:21.299Z,11.90
2018-10-04T05:45:25.627Z,12.00
2018-10-04T05:47:29.796Z,12.00
2018-10-04T05:49:34.050Z,12.00
2018-10-04T05:51:38.243Z,12.00
2018-10-04T05:53:42.528Z,12.00
2018-10-04T05:55:46.701Z,12.00
2018-10-04T05:57:51.286Z,12.00
2018-10-04T06:00:06.554Z,12.00
2018-10-04T06:02:10.869Z,12.00
2018-10-04T06:04:15.085Z,12.00
2018-10-04T06:06:19.323Z,12.00
2018-10-04T06:08:23.512Z,12.10
2018-10-04T06:10:27.747Z,12.10
2018-10-04T06:12:32.021Z,12.10
2018-10-04T06:14:36.281Z,12.10
2018-10-04T06:16:40.568Z,12.10
2018-10-04T06:18:44.794Z,12.10
2018-10-04T06:20:49.021Z,12.10
2018-10-04T06:22:53.250Z,12.10
2018-10-04T06:24:57.461Z,12.10
2018-10-04T06:27:01.664Z,12.10
2018-10-04T06:29:06.039Z,12.20
2018-10-04T06:31:10.238Z,12.20
2018-10-04T06:33:14.386Z,12.20
2018-10-04T06:35:18.608Z,12.20
2018-10-04T06:37:22.808Z,12.20
2018-10-04T06:39:27.085Z,12.20
2018-10-04T06:41:31.384Z,12.20
2018-10-04T06:43:35.558Z,12.30
2018-10-04T06:45:39.782Z,12.20
2018-10-04T06:47:43.957Z,12.30
2018-10-04T06:49:48.241Z,12.30
2018-10-04T06:51:52.540Z,12.30
2018-10-04T06:53:56.790Z,12.30
2018-10-04T06:56:01.043Z,12.40
2018-10-04T06:58:05.255Z,12.30
2018-10-04T07:00:09.422Z,12.40
2018-10-04T07:02:13.759Z,12.40
2018-10-04T07:04:24.578Z,12.40
2018-10-04T07:06:28.867Z,12.40
2018-10-04T07:08:33.111Z,12.40
2018-10-04T07:10:37.487Z,12.50
2018-10-04T07:12:41.713Z,12.50
2018-10-04T07:14:45.940Z,12.50
2018-10-04T07:16:50.427Z,12.50
2018-10-04T07:18:54.649Z,12.60
2018-10-04T07:20:58.901Z,12.60
2018-10-04T07:23:03.123Z,12.60
2018-10-04T07:25:07.375Z,12.60
2018-10-04T07:27:12.132Z,12.60
2018-10-04T07:29:16.425Z,12.60
2018-10-04T07:31:20.732Z,12.60
2018-10-04T07:33:24.904Z,12.60
2018-10-04T07:35:29.270Z,12.60
2018-10-04T07:37:33.541Z,12.60
2018-10-04T07:39:38.108Z,12.70
2018-10-04T07:41:42.486Z,12.70
2018-10-04T07:43:46.666Z,12.70
2018-10-04T07:45:51.040Z,12.70
2018-10-04T07:47:55.259Z,12.80
2018-10-04T07:49:59.484Z,12.80
2018-10-04T07:52:03.782Z,12.80
2018-10-04T07:54:07.989Z,12.80
2018-10-04T07:56:12.307Z,12.80
2018-10-04T07:58:16.528Z,12.90
2018-10-04T08:00:21.020Z,12.90
2018-10-04T08:02:25.288Z,12.90
2018-10-04T08:04:29.685Z,12.90
2018-10-04T08:06:34.118Z,12.90
2018-10-04T08:08:38.127Z,12.90
2018-10-04T08:10:42.303Z,13.00
2018-10-04T08:12:46.515Z,13.00
2018-10-04T08:14:50.716Z,13.00
2018-10-04T08:16:54.916Z,13.00
2018-10-04T08:18:59.166Z,13.00
2018-10-04T08:21:03.488Z,13.10
2018-10-04T08:23:07.671Z,13.10
2018-10-04T08:25:11.919Z,13.10
2018-10-04T08:27:16.191Z,13.20
2018-10-04T08:29:20.508Z,13.20
2018-10-04T08:31:24.786Z,13.30
2018-10-04T08:33:29.018Z,13.20
2018-10-04T08:35:33.283Z,13.30
2018-10-04T08:37:37.592Z,13.40
2018-10-04T08:39:41.956Z,13.40
2018-10-04T08:41:46.253Z,13.40
2018-10-04T08:43:50.480Z,13.40
2018-10-04T08:45:54.668Z,13.40
2018-10-04T08:47:58.953Z,13.50
2018-10-04T08:50:03.156Z,13.50
2018-10-04T08:52:11.563Z,13.50
2018-10-04T08:54:15.910Z,13.60
2018-10-04T08:56:20.232Z,13.60
2018-10-04T08:58:24.508Z,13.60
2018-10-04T09:00:30.585Z,13.60
2018-10-04T09:02:34.798Z,13.70
2018-10-04T09:04:39.075Z,13.70
2018-10-04T09:06:43.290Z,13.70
2018-10-04T09:08:47.442Z,13.80
2018-10-04T09:10:51.654Z,13.70
2018-10-04T09:12:55.915Z,13.90
2018-10-04T09:15:00.118Z,13.80
2018-10-04T09:17:04.281Z,13.90
2018-10-04T09:19:08.607Z,13.90
2018-10-04T09:21:12.888Z,13.90
2018-10-04T09:23:17.153Z,13.90
2018-10-04T09:25:21.719Z,13.90
2018-10-04T09:27:25.930Z,14.00
2018-10-04T09:29:30.190Z,13.90
2018-10-04T09:31:36.931Z,14.00
2018-10-04T09:33:41.136Z,14.00
2018-10-04T09:35:45.399Z,14.00
2018-10-04T09:37:49.609Z,14.00
2018-10-04T09:39:53.849Z,14.00
2018-10-04T09:41:58.054Z,14.00
2018-10-04T09:44:02.414Z,13.90
2018-10-04T09:46:06.757Z,13.90
2018-10-04T09:48:13.720Z,14.00
2018-10-04T09:50:17.895Z,14.10
2018-10-04T09:52:22.231Z,14.10
2018-10-04T09:54:31.489Z,14.00
2018-10-04T09:56:40.704Z,14.00
2018-10-04T09:58:44.927Z,14.00
2018-10-04T10:00:54.293Z,14.10
2018-10-04T10:03:03.571Z,14.10
2018-10-04T10:05:07.911Z,14.10
2018-10-04T10:07:12.210Z,14.20
2018-10-04T10:09:16.520Z,14.20
2018-10-04T10:11:20.716Z,14.20
2018-10-04T10:13:24.995Z,14.30
2018-10-04T10:15:29.224Z,14.40
2018-10-04T10:17:33.490Z,14.40
2018-10-04T10:19:37.725Z,14.40
2018-10-04T10:21:42.011Z,14.40
2018-10-04T10:23:46.297Z,14.40
2018-10-04T10:25:50.519Z,14.40
2018-10-04T10:27:54.722Z,14.40
2018-10-04T10:29:59.033Z,14.40
2018-10-04T10:32:03.159Z,14.40
2018-10-04T10:34:07.378Z,14.50
2018-10-04T10:36:11.643Z,14.50
2018-10-04T10:38:15.900Z,14.50
2018-10-04T10:40:20.201Z,14.50
2018-10-04T10:42:24.397Z,14.50
2018-10-04T10:44:28.595Z,14.60
2018-10-04T10:46:32.844Z,14.60
2018-10-04T10:48:37.166Z,14.70
2018-10-04T10:50:41.372Z,14.70
2018-10-04T10:52:45.623Z,14.90
2018-10-04T10:54:49.890Z,14.80
2018-10-04T10:56:54.016Z,14.80
2018-10-04T10:58:58.259Z,14.80
2018-10-04T11:01:02.589Z,14.90
2018-10-04T11:03:06.814Z,14.90
2018-10-04T11:05:11.072Z,14.80
2018-10-04T11:07:15.334Z,14.80
2018-10-04T11:09:19.488Z,14.80
2018-10-04T11:11:23.838Z,14.90
2018-10-04T11:13:28.070Z,14.90
2018-10-04T11:15:32.383Z,14.90
2018-10-04T11:17:36.629Z,14.90
2018-10-04T11:19:40.770Z,14.90
2018-10-04T11:21:45.086Z,15.00
2018-10-04T11:23:49.300Z,15.00
2018-10-04T11:25:53.921Z,14.90
2018-10-04T11:27:58.133Z,15.00
2018-10-04T11:30:02.373Z,15.10
2018-10-04T11:32:06.640Z,15.00
2018-10-04T11:34:10.975Z,15.00
2018-10-04T11:36:15.343Z,15.10
2018-10-04T11:38:19.620Z,15.10
2018-10-04T11:40:23.866Z,15.10
2018-10-04T11:42:28.135Z,15.10
2018-10-04T11:44:35.316Z,15.10
2018-10-04T11:46:39.661Z,15.10
2018-10-04T11:48:46.715Z,15.20
2018-10-04T11:50:50.982Z,15.20
2018-10-04T11:52:55.225Z,15.20
2018-10-04T11:54:59.731Z,15.20
2018-10-04T11:57:04.059Z,15.30
2018-10-04T11:59:08.270Z,15.30
2018-10-04T12:01:12.538Z,15.30
2018-10-04T12:03:16.721Z,15.30
2018-10-04T12:05:21.047Z,15.30
2018-10-04T12:07:25.302Z,15.20
2018-10-04T12:09:29.576Z,15.20
2018-10-04T12:11:33.786Z,15.20
2018-10-04T12:13:37.943Z,15.20
2018-10-04T12:15:42.141Z,15.40
2018-10-04T12:17:46.396Z,15.40
2018-10-04T12:19:50.589Z,15.40
2018-10-04T12:21:54.856Z,15.40
2018-10-04T12:23:59.080Z,15.30
2018-10-04T12:26:03.364Z,15.30
2018-10-04T12:28:07.571Z,15.30
2018-10-04T12:30:11.266Z,15.30
2018-10-04T12:32:15.519Z,15.30
2018-10-04T12:34:19.731Z,15.20
2018-10-04T12:36:23.959Z,15.20
2018-10-04T12:38:28.278Z,15.20
2018-10-04T12:40:32.584Z,15.20
2018-10-04T12:42:36.828Z,15.20
2018-10-04T12:44:41.200Z,15.20
2018-10-04T12:46:45.423Z,15.10
2018-10-04T12:48:49.568Z,15.10
2018-10-04T12:50:53.775Z,15.10
2018-10-04T12:52:58.016Z,15.10
2018-10-04T12:55:02.190Z,15.10
2018-10-04T12:57:06.429Z,15.10
2018-10-04T12:59:10.606Z,15.10
2018-10-04T13:01:14.782Z,15.00
2018-10-04T13:03:18.986Z,15.00
2018-10-04T13:05:23.168Z,15.00
2018-10-04T13:07:27.443Z,15.10
2018-10-04T13:09:31.779Z,15.20
2018-10-04T13:11:36.015Z,15.20
2018-10-04T13:13:40.308Z,15.20
2018-10-04T13:15:44.463Z,15.20
2018-10-04T13:17:48.714Z,15.40
2018-10-04T13:19:52.925Z,15.50
2018-10-04T13:21:57.173Z,15.40
2018-10-04T13:24:01.339Z,15.40
2018-10-04T13:26:05.561Z,15.50
2018-10-04T13:28:09.807Z,15.50
2018-10-04T13:30:14.054Z,15.80
2018-10-04T13:32:18.285Z,15.90
2018-10-04T13:34:22.475Z,15.80
2018-10-04T13:36:26.699Z,15.70
2018-10-04T13:38:30.997Z,15.60
2018-10-04T13:40:35.236Z,15.60
2018-10-04T13:42:39.555Z,15.60
2018-10-04T13:44:43.755Z,15.60
2018-10-04T13:46:48.003Z,15.60
2018-10-04T13:48:52.206Z,15.60
2018-10-04T13:50:56.379Z,15.70
2018-10-04T13:53:00.642Z,15.70
2018-10-04T13:55:04.978Z,15.70
2018-10-04T13:57:09.227Z,15.60
2018-10-04T13:59:13.418Z,15.60
2018-10-04T14:01:17.610Z,15.70
2018-10-04T14:03:21.859Z,15.60
2018-10-04T14:05:26.067Z,15.60
2018-10-04T14:07:30.296Z,15.70
2018-10-04T14:09:34.544Z,15.60
2018-10-04T14:11:38.752Z,15.60
2018-10-04T14:13:42.939Z,15.60
2018-10-04T14:15:47.258Z,15.60
2018-10-04T14:17:51.464Z,15.50
2018-10-04T14:19:55.750Z,15.50
2018-10-04T14:21:59.959Z,15.50
2018-10-04T14:24:04.339Z,15.50
2018-10-04T14:26:08.561Z,15.50
2018-10-04T14:28:12.729Z,15.50
2018-10-04T14:30:16.919Z,15.50
2018-10-04T14:32:21.277Z,15.50
2018-10-04T14:34:25.568Z,15.50
2018-10-04T14:36:29.836Z,15.50
2018-10-04T14:38:34.247Z,15.50
2018-10-04T14:40:38.552Z,15.50
2018-10-04T14:42:42.801Z,15.50
2018-10-04T14:44:47.047Z,15.50
2018-10-04T14:46:51.314Z,15.50
2018-10-04T14:48:55.538Z,15.50
2018-10-04T14:50:59.850Z,15.50
2018-10-04T14:53:04.064Z,15.50
2018-10-04T14:55:08.365Z,15.50
2018-10-04T14:57:12.625Z,15.50
2018-10-04T14:59:16.862Z,15.60
2018-10-04T15:01:21.012Z,15.60
2018-10-04T15:03:25.329Z,15.60
2018-10-04T15:05:29.519Z,15.50
2018-10-04T15:07:33.772Z,15.50
2018-10-04T15:09:38.148Z,15.50
2018-10-04T15:11:43.369Z,15.50
2018-10-04T15:13:47.753Z,15.50
2018-10-04T15:15:56.377Z,15.50
2018-10-04T15:18:00.649Z,15.50
2018-10-04T15:20:09.762Z,15.50
2018-10-04T15:22:14.143Z,15.50
2018-10-04T15:24:19.297Z,15.50
2018-10-04T15:26:23.797Z,15.50
2018-10-04T15:28:28.399Z,15.50
2018-10-04T15:30:33.208Z,15.50
2018-10-04T15:32:38.648Z,15.50
2018-10-04T15:34:43.357Z,15.50
2018-10-04T15:36:47.837Z,15.50
2018-10-04T15:38:52.470Z,15.50
2018-10-04T15:40:57.147Z,15.50
2018-10-04T15:43:02.188Z,15.40
2018-10-04T15:45:07.421Z,15.40
2018-10-04T15:47:13.573Z,15.40
2018-10-04T15:49:18.011Z,15.40
2018-10-04T15:51:22.409Z,15.30
2018-10-04T15:53:26.615Z,15.40
2018-10-04T15:55:30.810Z,15.40
2018-10-04T15:57:34.998Z,15.30
2018-10-04T15:59:39.238Z,15.40
2018-10-04T16:01:43.432Z,15.30
2018-10-04T16:03:47.702Z,15.30
2018-10-04T16:05:51.904Z,15.30
2018-10-04T16:07:56.157Z,15.30
2018-10-04T16:10:00.338Z,15.30
2018-10-04T16:12:04.596Z,15.30
2018-10-04T16:14:08.870Z,15.30
2018-10-04T16:16:13.211Z,15.30
2018-10-04T16:18:17.490Z,15.30
2018-10-04T16:20:21.698Z,15.30
2018-10-04T16:22:25.975Z,15.20
2018-10-04T16:24:30.258Z,15.20
2018-10-04T16:26:34.498Z,15.30
2018-10-04T16:28:38.719Z,15.30
2018-10-04T16:30:42.954Z,15.20
2018-10-04T16:32:47.199Z,15.30
2018-10-04T16:34:51.370Z,15.30
2018-10-04T16:36:55.619Z,15.20
2018-10-04T16:38:59.815Z,15.20
2018-10-04T16:41:04.041Z,15.20
2018-10-04T16:43:08.343Z,15.20
2018-10-04T16:45:12.527Z,15.20
2018-10-04T16:47:16.798Z,15.20
2018-10-04T16:49:21.087Z,15.20
2018-10-04T16:51:25.262Z,15.20
2018-10-04T16:53:29.447Z,15.20
2018-10-04T16:55:33.694Z,15.20
2018-10-04T16:57:37.902Z,15.20
2018-10-04T16:59:42.255Z,15.20
2018-10-04T17:01:46.453Z,15.20
2018-10-04T17:03:50.752Z,15.10
2018-10-04T17:05:54.904Z,15.10
2018-10-04T17:07:59.110Z,15.10
2018-10-04T17:10:03.377Z,15.10
2018-10-04T17:12:07.767Z,15.10
2018-10-04T17:14:12.044Z,15.10
2018-10-04T17:16:16.222Z,15.10
2018-10-04T17:18:20.494Z,15.10
2018-10-04T17:20:24.765Z,15.10
2018-10-04T17:22:29.048Z,15.10
2018-10-04T17:24:33.296Z,15.10
2018-10-04T17:26:37.832Z,15.10
2018-10-04T17:28:42.091Z,15.10
2018-10-04T17:30:46.284Z,15.10
2018-10-04T17:32:50.518Z,15.10
2018-10-04T17:34:54.825Z,15.10
2018-10-04T17:36:59.025Z,15.10
2018-10-04T17:39:03.501Z,15.10
2018-10-04T17:41:07.894Z,15.10
2018-10-04T17:43:12.236Z,15.10
2018-10-04T17:45:16.503Z,15.10
2018-10-04T17:47:20.712Z,15.00
2018-10-04T17:49:24.862Z,15.10
2018-10-04T17:51:29.136Z,15.00
2018-10-04T17:53:33.348Z,15.00
2018-10-04T17:55:37.554Z,15.00
2018-10-04T17:57:42.544Z,15.00
2018-10-04T17:59:46.727Z,15.00
2018-10-04T18:01:51.068Z,15.00
2018-10-04T18:03:55.277Z,15.00
2018-10-04T18:05:59.494Z,15.00
2018-10-04T18:08:03.707Z,15.00
2018-10-04T18:10:08.039Z,15.00
2018-10-04T18:12:12.262Z,15.00
2018-10-04T18:14:16.457Z,15.00
2018-10-04T18:16:20.670Z,15.00
2018-10-04T18:18:24.911Z,15.00
2018-10-04T18:20:29.107Z,15.00
2018-10-04T18:22:33.350Z,15.00
2018-10-04T18:24:37.577Z,15.00
2018-10-04T18:26:41.811Z,15.00
2018-10-04T18:28:46.186Z,15.00
2018-10-04T18:30:50.456Z,15.00
2018-10-04T18:32:54.724Z,15.00
2018-10-04T18:34:59.901Z,15.00
2018-10-04T18:37:04.175Z,15.00
2018-10-04T18:39:09.235Z,15.00
2018-10-04T18:41:15.125Z,15.00
2018-10-04T18:43:19.322Z,15.00
2018-10-04T18:45:23.560Z,15.10
2018-10-04T18:47:28.051Z,15.00
2018-10-04T18:49:32.326Z,15.00
2018-10-04T18:51:36.434Z,15.10
2018-10-04T18:53:40.671Z,15.00
2018-10-04T18:55:44.935Z,15.10
2018-10-04T18:57:49.162Z,15.10
2018-10-04T18:59:53.438Z,15.10
2018-10-04T19:01:57.575Z,15.10
2018-10-04T19:04:01.844Z,15.00
2018-10-04T19:06:06.382Z,15.10
2018-10-04T19:08:10.822Z,15.10
2018-10-04T19:10:15.045Z,15.10
2018-10-04T19:12:19.303Z,15.10
2018-10-04T19:14:23.535Z,15.00
2018-10-04T19:16:27.736Z,15.00
2018-10-04T19:18:32.060Z,15.10
2018-10-04T19:20:36.293Z,15.10
2018-10-04T19:22:40.484Z,15.10
2018-10-04T19:24:44.711Z,15.10
2018-10-04T19:26:48.928Z,15.10
2018-10-04T19:28:53.264Z,15.10
2018-10-04T19:30:57.525Z,15.10
2018-10-04T19:33:01.771Z,15.10
2018-10-04T19:35:13.060Z,15.10
2018-10-04T19:37:17.327Z,15.10
2018-10-04T19:39:21.519Z,15.10
2018-10-04T19:41:25.723Z,15.10
2018-10-04T19:43:29.947Z,15.00
2018-10-04T19:45:34.154Z,15.00
2018-10-04T19:47:38.320Z,15.00
2018-10-04T19:49:42.997Z,15.00
2018-10-04T19:51:47.302Z,15.00
2018-10-04T19:53:51.532Z,15.00
2018-10-04T19:55:55.749Z,15.00
2018-10-04T19:57:59.971Z,15.00
2018-10-04T20:00:04.362Z,14.90
2018-10-04T20:02:08.575Z,14.90
2018-10-04T20:04:13.076Z,14.90
2018-10-04T20:06:17.250Z,14.90
2018-10-04T20:08:21.475Z,14.90
2018-10-04T20:10:25.699Z,14.90
2018-10-04T20:12:29.944Z,14.90
2018-10-04T20:14:34.171Z,14.90
2018-10-04T20:16:38.334Z,14.90
2018-10-04T20:18:42.543Z,14.80
2018-10-04T20:20:47.150Z,14.90
2018-10-04T20:22:51.691Z,14.90
2018-10-04T20:24:56.145Z,14.80
2018-10-04T20:27:01.462Z,14.80
2018-10-04T20:29:05.704Z,14.80
2018-10-04T20:31:09.999Z,14.80
2018-10-04T20:33:14.240Z,14.80
2018-10-04T20:35:18.447Z,14.70
2018-10-04T20:37:23.242Z,14.70
2018-10-04T20:39:27.556Z,14.70
2018-10-04T20:41:31.709Z,14.70
2018-10-04T20:43:36.065Z,14.70
2018-10-04T20:45:40.957Z,14.60
2018-10-04T20:47:45.214Z,14.60
2018-10-04T20:49:49.439Z,14.60
2018-10-04T20:51:53.723Z,14.60
2018-10-04T20:53:58.147Z,14.60
2018-10-04T20:56:02.540Z,14.60
2018-10-04T20:58:06.739Z,14.50
2018-10-04T21:00:10.954Z,14.50
2018-10-04T21:02:15.371Z,14.50
2018-10-04T21:04:19.714Z,14.50
2018-10-04T21:06:28.911Z,14.40
2018-10-04T21:08:33.407Z,14.40
2018-10-04T21:10:37.717Z,14.40
2018-10-04T21:12:43.031Z,14.40
2018-10-04T21:14:48.526Z,14.30
2018-10-04T21:16:53.022Z,14.30
2018-10-04T21:18:57.222Z,14.30
2018-10-04T21:21:01.398Z,14.20
2018-10-04T21:23:05.813Z,14.20
2018-10-04T21:25:10.533Z,14.20
2018-10-04T21:27:14.763Z,14.20
2018-10-04T21:29:22.400Z,14.20
2018-10-04T21:31:26.874Z,14.10
2018-10-04T21:33:31.236Z,14.10
2018-10-04T21:35:35.463Z,14.10
2018-10-04T21:37:39.694Z,14.00
2018-10-04T21:39:43.979Z,14.00
2018-10-04T21:41:49.355Z,14.00
2018-10-04T21:44:00.417Z,14.00
2018-10-04T21:46:04.704Z,14.00
2018-10-04T21:48:13.854Z,14.00
2018-10-04T21:50:18.453Z,14.00
2018-10-04T21:52:22.650Z,14.00
2018-10-04T21:54:27.043Z,14.00
2018-10-04T21:56:37.011Z,14.00
2018-10-04T21:58:42.519Z,13.90
2018-10-04T22:00:59.445Z,13.90
2018-10-04T22:03:03.631Z,13.90
2018-10-04T22:05:09.362Z,13.80
2018-10-04T22:07:13.594Z,13.90
2018-10-04T22:09:17.808Z,13.90
2018-10-04T22:11:28.720Z,13.80
2018-10-04T22:13:32.874Z,13.80
2018-10-04T22:15:37.019Z,13.70
2018-10-04T22:17:41.258Z,13.80
2018-10-04T22:19:45.486Z,13.80
2018-10-04T22:21:49.746Z,13.70
2018-10-04T22:23:53.927Z,13.70
2018-10-04T22:25:59.185Z,13.70
2018-10-04T22:28:03.652Z,13.70
2018-10-04T22:30:07.979Z,13.70
2018-10-04T22:32:12.179Z,13.60
2018-10-04T22:34:16.443Z,13.60
2018-10-04T22:36:20.652Z,13.60
2018-10-04T22:38:28.022Z,13.70
2018-10-04T22:40:37.026Z,13.60
2018-10-04T22:42:46.053Z,13.60
2018-10-04T22:44:52.898Z,13.60
2018-10-04T22:46:57.214Z,13.60
2018-10-04T22:49:01.548Z,13.60
2018-10-04T22:51:11.668Z,13.60
2018-10-04T22:53:16.646Z,13.60
2018-10-04T22:55:23.650Z,13.60
2018-10-04T22:57:28.166Z,13.60
2018-10-04T22:59:32.355Z,13.60
2018-10-04T23:01:36.722Z,13.60
2018-10-04T23:03:41.001Z,13.60
2018-10-04T23:05:45.267Z,13.50
2018-10-04T23:07:55.473Z,13.40
2018-10-04T23:09:59.675Z,13.40
2018-10-04T23:12:08.022Z,13.30
2018-10-04T23:14:12.172Z,13.40
2018-10-04T23:16:18.618Z,13.40
2018-10-04T23:18:25.923Z,13.40
2018-10-04T23:20:30.113Z,13.30
2018-10-04T23:22:34.312Z,13.40
2018-10-04T23:24:40.879Z,13.40
2018-10-04T23:26:45.128Z,13.30
2018-10-04T23:28:52.555Z,13.30
2018-10-04T23:31:03.008Z,13.30
2018-10-04T23:33:11.197Z,13.30
2018-10-04T23:35:15.599Z,13.30
2018-10-04T23:37:19.828Z,13.30
2018-10-04T23:39:24.071Z,13.30
2018-10-04T23:41:28.324Z,13.30
2018-10-04T23:43:32.552Z,13.40
2018-10-04T23:45:36.790Z,13.30
2018-10-04T23:47:45.944Z,13.30
2018-10-04T23:49:51.011Z,13.20
2018-10-04T23:51:55.188Z,13.20
2018-10-04T23:54:00.972Z,13.10
2018-10-04T23:56:11.214Z,13.10
2018-10-04T23:58:15.418Z,13.10
